createdAt,value
2023-03-06T00:08:30.599Z,1.00
2023-03-06T00:11:34.552Z,1.00
2023-03-06T00:14:07.442Z,1.00
2023-03-06T00:17:05.362Z,1.00
2023-03-06T00:23:28.614Z,0.90
2023-03-06T00:27:00.850Z,0.80
2023-03-06T00:33:14.596Z,0.70
2023-03-06T00:36:28.124Z,0.50
2023-03-06T00:39:35.596Z,0.50
2023-03-06T00:44:53.269Z,0.20
2023-03-06T00:47:20.070Z,0.10
2023-03-06T00:49:55.998Z,0.00
2023-03-06T00:52:44.417Z,0.00
2023-03-06T00:59:01.806Z,-0.20
2023-03-06T01:05:28.852Z,-0.30
2023-03-06T01:08:39.430Z,-0.30
2023-03-06T01:11:49.623Z,-0.40
2023-03-06T01:18:54.038Z,-0.50
2023-03-06T01:32:51.478Z,-0.70
2023-03-06T01:39:33.764Z,-0.70
2023-03-06T01:42:46.377Z,-0.80
2023-03-06T01:56:57.721Z,-1.00
2023-03-06T02:25:10.158Z,-1.20
2023-03-06T02:28:34.287Z,-1.30
2023-03-06T02:31:01.085Z,-1.30
2023-03-06T02:41:27.387Z,-1.40
2023-03-06T02:48:37.940Z,-1.40
2023-03-06T02:51:16.446Z,-1.40
2023-03-06T03:08:39.313Z,-1.50
2023-03-06T03:11:12.449Z,-1.40
2023-03-06T03:14:32.176Z,-1.40
2023-03-06T03:20:58.869Z,-1.20
2023-03-06T03:27:47.727Z,-1.00
2023-03-06T03:34:39.475Z,-0.90
2023-03-06T03:37:49.885Z,-0.80
2023-03-06T03:40:41.573Z,-0.80
2023-03-06T03:43:08.383Z,-0.70
2023-03-06T03:45:35.220Z,-0.70
2023-03-06T03:48:02.059Z,-0.70
2023-03-06T03:50:28.893Z,-0.70
2023-03-06T03:52:55.709Z,-0.70
2023-03-06T03:55:22.561Z,-0.70
2023-03-06T03:57:49.425Z,-0.70
2023-03-06T04:00:16.971Z,-0.60
2023-03-06T04:02:44.720Z,-0.60
2023-03-06T04:05:13.100Z,-0.60
2023-03-06T04:07:40.759Z,-0.60
2023-03-06T04:10:09.379Z,-0.60
2023-03-06T04:12:36.856Z,-0.60
2023-03-06T04:15:05.729Z,-0.60
2023-03-06T04:17:34.895Z,-0.60
2023-03-06T04:20:02.648Z,-0.60
2023-03-06T04:22:29.556Z,-0.60
2023-03-06T04:24:56.415Z,-0.60
2023-03-06T04:27:23.256Z,-0.60
2023-03-06T04:29:50.183Z,-0.50
2023-03-06T04:32:17.571Z,-0.50
2023-03-06T04:34:45.507Z,-0.50
2023-03-06T04:37:23.851Z,-0.60
2023-03-06T04:39:50.977Z,-0.60
2023-03-06T04:42:18.599Z,-0.60
2023-03-06T04:44:45.631Z,-0.60
2023-03-06T04:47:13.162Z,-0.60
2023-03-06T04:49:40.038Z,-0.60
2023-03-06T04:52:07.151Z,-0.50
2023-03-06T04:54:33.993Z,-0.50
2023-03-06T04:57:00.842Z,-0.60
2023-03-06T04:59:27.732Z,-0.60
2023-03-06T05:01:54.842Z,-0.60
2023-03-06T05:04:21.699Z,-0.60
2023-03-06T05:06:48.606Z,-0.60
2023-03-06T05:09:15.444Z,-0.60
2023-03-06T05:11:42.240Z,-0.60
2023-03-06T05:14:09.125Z,-0.60
2023-03-06T05:16:36.046Z,-0.70
2023-03-06T05:19:03.384Z,-0.70
2023-03-06T05:21:30.547Z,-0.70
2023-03-06T05:23:57.349Z,-0.70
2023-03-06T05:26:24.645Z,-0.70
2023-03-06T05:28:51.508Z,-0.70
2023-03-06T05:31:18.431Z,-0.70
2023-03-06T05:33:45.275Z,-0.70
2023-03-06T05:36:12.215Z,-0.70
2023-03-06T05:38:39.028Z,-0.70
2023-03-06T05:41:05.930Z,-0.70
2023-03-06T05:43:33.028Z,-0.70
2023-03-06T05:46:02.163Z,-0.70
2023-03-06T05:48:29.071Z,-0.70
2023-03-06T05:50:59.235Z,-0.70
2023-03-06T05:53:26.881Z,-0.70
2023-03-06T05:56:05.283Z,-0.70
2023-03-06T05:58:33.928Z,-0.70
2023-03-06T06:01:01.121Z,-0.70
2023-03-06T06:03:28.009Z,-0.70
2023-03-06T06:05:57.890Z,-0.70
2023-03-06T06:08:24.783Z,-0.70
2023-03-06T06:10:53.404Z,-0.70
2023-03-06T06:13:20.354Z,-0.70
2023-03-06T06:15:47.197Z,-0.70
2023-03-06T08:07:13.630Z,1.10
2023-03-06T08:09:40.452Z,1.20
2023-03-06T08:12:07.551Z,1.30
2023-03-06T08:14:35.220Z,1.40
2023-03-06T08:17:02.140Z,1.40
2023-03-06T08:19:28.904Z,1.50
2023-03-06T08:21:56.330Z,1.60
2023-03-06T08:24:23.114Z,1.70
2023-03-06T08:26:49.978Z,1.70
2023-03-06T08:29:16.835Z,1.80
2023-03-06T08:31:46.129Z,1.90
2023-03-06T08:34:15.857Z,2.00
2023-03-06T08:36:42.824Z,2.10
2023-03-06T08:39:10.169Z,2.20
2023-03-06T08:41:37.917Z,2.40
2023-03-06T08:44:05.014Z,2.40
2023-03-06T08:46:32.985Z,2.50
2023-03-06T08:48:59.833Z,2.60
2023-03-06T08:51:27.943Z,2.70
2023-03-06T08:53:55.336Z,2.80
2023-03-06T08:56:25.174Z,2.90
2023-03-06T08:58:53.529Z,3.10
2023-03-06T09:01:25.794Z,3.20
2023-03-06T09:03:57.474Z,3.30
2023-03-06T09:06:27.340Z,3.40
2023-03-06T09:08:54.514Z,3.50
2023-03-06T09:11:22.911Z,3.60
2023-03-06T09:13:49.945Z,3.70
2023-03-06T09:16:16.854Z,3.80
2023-03-06T09:18:50.906Z,3.90
2023-03-06T09:21:17.676Z,4.00
2023-03-06T09:23:45.283Z,4.10
2023-03-06T09:26:12.641Z,4.20
2023-03-06T09:28:40.414Z,4.40
2023-03-06T09:31:12.332Z,4.40
2023-03-06T09:33:39.633Z,4.50
2023-03-06T09:36:07.901Z,4.60
2023-03-06T09:38:34.886Z,4.70
2023-03-06T09:41:24.657Z,4.80
2023-03-06T09:43:54.436Z,4.80
2023-03-06T09:46:49.131Z,4.60
2023-03-06T09:49:49.485Z,4.50
2023-03-06T09:52:31.411Z,4.50
2023-03-06T09:55:19.033Z,4.80
2023-03-06T09:57:58.653Z,5.10
2023-03-06T10:00:50.956Z,5.30
2023-03-06T10:03:48.509Z,5.60
2023-03-06T10:06:26.452Z,6.10
2023-03-06T10:09:16.586Z,6.40
2023-03-06T10:11:52.381Z,6.60
2023-03-06T10:14:40.274Z,6.60
2023-03-06T10:17:16.310Z,6.70
2023-03-06T10:19:43.401Z,6.70
2023-03-06T10:22:35.041Z,6.80
2023-03-06T10:25:28.115Z,6.80
2023-03-06T10:28:17.540Z,6.90
2023-03-06T10:31:08.018Z,6.90
2023-03-06T10:33:51.719Z,6.80
2023-03-06T10:36:19.862Z,6.80
2023-03-06T10:38:48.603Z,6.70
2023-03-06T10:41:23.112Z,6.70
2023-03-06T10:44:05.293Z,6.70
2023-03-06T10:46:46.030Z,6.90
2023-03-06T10:49:27.127Z,7.10
2023-03-06T10:52:06.744Z,7.20
2023-03-06T10:54:39.155Z,7.30
2023-03-06T10:57:29.442Z,7.40
2023-03-06T10:59:58.707Z,7.50
2023-03-06T11:02:31.044Z,7.50
2023-03-06T11:05:00.408Z,7.70
2023-03-06T11:07:29.579Z,7.70
2023-03-06T11:10:07.910Z,7.90
2023-03-06T11:12:39.710Z,8.10
2023-03-06T11:15:06.476Z,8.30
2023-03-06T11:17:35.983Z,8.40
2023-03-06T11:20:15.057Z,8.60
2023-03-06T11:22:49.045Z,8.90
2023-03-06T11:25:18.026Z,9.30
2023-03-06T11:27:47.043Z,9.60
2023-03-06T11:30:22.322Z,9.70
2023-03-06T11:32:57.816Z,9.40
2023-03-06T11:36:05.429Z,9.30
2023-03-06T11:38:49.704Z,9.40
2023-03-06T11:41:30.868Z,9.60
2023-03-06T11:44:15.317Z,9.90
2023-03-06T11:46:48.689Z,10.00
2023-03-06T11:49:33.361Z,10.00
2023-03-06T11:52:05.522Z,10.20
2023-03-06T11:54:33.750Z,10.30
2023-03-06T11:57:13.250Z,10.30
2023-03-06T12:00:05.092Z,10.20
2023-03-06T12:02:54.981Z,10.00
2023-03-06T12:05:51.967Z,10.20
2023-03-06T12:08:30.443Z,10.20
2023-03-06T12:11:09.696Z,10.10
2023-03-06T12:13:50.114Z,10.10
2023-03-06T12:16:42.579Z,10.00
2023-03-06T12:19:31.749Z,10.00
2023-03-06T12:22:16.785Z,10.00
2023-03-06T12:25:05.116Z,9.90
2023-03-06T12:27:38.190Z,9.90
2023-03-06T12:30:29.678Z,9.90
2023-03-06T12:33:26.410Z,9.80
2023-03-06T12:36:31.115Z,9.70
2023-03-06T12:39:16.582Z,9.50
2023-03-06T12:42:04.862Z,9.30
2023-03-06T12:44:56.085Z,9.30
2023-03-06T12:47:25.642Z,9.40
2023-03-06T12:49:59.259Z,9.40
2023-03-06T12:52:30.689Z,9.40
2023-03-06T12:55:04.356Z,9.20
2023-03-06T12:57:31.273Z,8.90
2023-03-06T12:59:58.165Z,8.90
2023-03-06T13:02:43.003Z,9.00
2023-03-06T13:05:30.536Z,9.20
2023-03-06T13:07:57.419Z,9.30
2023-03-06T13:10:35.886Z,9.30
2023-03-06T13:13:41.485Z,9.20
2023-03-06T13:16:34.003Z,8.90
2023-03-06T13:19:00.962Z,8.80
2023-03-06T13:21:58.994Z,8.70
2023-03-06T13:24:37.570Z,8.70
2023-03-06T13:27:05.959Z,9.00
2023-03-06T13:29:35.827Z,8.90
2023-03-06T13:32:02.741Z,8.70
2023-03-06T13:34:43.519Z,8.50
2023-03-06T13:37:28.179Z,8.20
2023-03-06T13:39:54.984Z,8.00
2023-03-06T13:42:39.697Z,7.90
2023-03-06T13:45:08.008Z,7.90
2023-03-06T13:48:33.661Z,8.10
2023-03-06T13:50:46.271Z,8.00
2023-03-06T13:53:21.482Z,7.90
2023-03-06T13:56:04.344Z,7.90
2023-03-06T13:58:41.493Z,7.90
2023-03-06T14:01:23.050Z,7.80
2023-03-06T14:04:14.756Z,7.70
2023-03-06T14:06:51.976Z,7.70
2023-03-06T14:09:26.904Z,7.60
2023-03-06T14:12:07.859Z,7.50
2023-03-06T14:14:41.755Z,7.60
2023-03-06T14:17:18.111Z,7.60
2023-03-06T14:19:44.969Z,7.60
2023-03-06T14:22:16.602Z,7.50
2023-03-06T14:24:51.720Z,7.50
2023-03-06T14:27:19.278Z,7.60
2023-03-06T14:29:48.701Z,7.70
2023-03-06T14:32:21.634Z,7.70
2023-03-06T14:34:48.497Z,7.60
2023-03-06T14:37:21.536Z,7.50
2023-03-06T14:39:49.149Z,7.40
2023-03-06T14:42:27.567Z,7.30
2023-03-06T14:45:02.471Z,7.20
2023-03-06T14:47:36.692Z,7.10
2023-03-06T14:50:23.483Z,7.00
2023-03-06T14:53:04.796Z,7.00
2023-03-06T14:55:34.973Z,6.90
2023-03-06T14:58:14.601Z,6.80
2023-03-06T15:00:44.264Z,6.70
2023-03-06T15:03:21.003Z,6.60
2023-03-06T15:05:49.563Z,6.60
2023-03-06T15:08:21.082Z,6.50
2023-03-06T15:11:00.371Z,6.50
2023-03-06T15:13:29.424Z,6.50
2023-03-06T15:16:01.753Z,6.50
2023-03-06T15:18:35.272Z,6.50
2023-03-06T15:21:32.357Z,6.50
2023-03-06T15:23:59.717Z,6.40
2023-03-06T15:26:33.340Z,6.30
2023-03-06T15:29:10.324Z,6.30
2023-03-06T15:31:46.890Z,6.30
2023-03-06T15:34:23.715Z,6.20
2023-03-06T15:36:54.312Z,6.10
2023-03-06T15:39:38.919Z,6.00
2023-03-06T15:42:20.816Z,6.00
2023-03-06T15:44:55.779Z,5.90
2023-03-06T15:47:23.006Z,5.80
2023-03-06T15:49:52.593Z,5.80
2023-03-06T15:52:20.987Z,5.80
2023-03-06T15:54:48.619Z,5.70
2023-03-06T15:57:26.879Z,5.70
2023-03-06T15:59:54.278Z,5.70
2023-03-06T16:02:22.487Z,5.60
2023-03-06T16:04:49.942Z,5.60
2023-03-06T16:07:17.160Z,5.60
2023-03-06T16:09:44.354Z,5.50
2023-03-06T16:12:18.094Z,5.50
2023-03-06T16:14:47.364Z,5.50
2023-03-06T16:17:17.445Z,5.40
2023-03-06T16:19:44.437Z,5.40
2023-03-06T16:22:11.512Z,5.30
2023-03-06T16:24:38.497Z,5.30
2023-03-06T16:27:05.458Z,5.20
2023-03-06T16:29:32.726Z,5.20
2023-03-06T16:32:01.761Z,5.10
2023-03-06T16:34:28.842Z,5.00
2023-03-06T16:36:55.961Z,5.00
2023-03-06T16:39:23.925Z,4.90
2023-03-06T16:41:50.868Z,4.90
2023-03-06T16:44:17.816Z,4.80
2023-03-06T16:46:47.061Z,4.80
2023-03-06T16:49:22.604Z,4.80
2023-03-06T16:51:50.082Z,4.70
2023-03-06T16:54:16.996Z,4.70
2023-03-06T16:56:44.329Z,4.60
2023-03-06T16:59:11.841Z,4.60
2023-03-06T17:01:40.602Z,4.50
2023-03-06T17:04:07.602Z,4.40
2023-03-06T17:06:34.537Z,4.30
2023-03-06T17:11:31.060Z,4.10
2023-03-06T17:13:57.899Z,4.10
2023-03-06T17:16:24.661Z,4.00
2023-03-06T17:18:51.653Z,3.90
2023-03-06T17:21:18.443Z,3.90
2023-03-06T17:23:45.766Z,3.80
2023-03-06T17:26:20.461Z,3.70
2023-03-06T17:28:47.629Z,3.70
2023-03-06T17:31:23.036Z,3.60
2023-03-06T17:33:51.411Z,3.60
2023-03-06T17:36:19.268Z,3.50
2023-03-06T17:38:46.208Z,3.40
2023-03-06T17:41:13.191Z,3.30
2023-03-06T17:43:41.011Z,3.30
2023-03-06T17:46:10.112Z,3.20
2023-03-06T17:48:37.031Z,3.20
2023-03-06T17:51:04.623Z,3.10
2023-03-06T17:53:31.663Z,3.10
2023-03-06T17:55:58.557Z,3.00
2023-03-06T17:58:26.212Z,3.00
2023-03-06T18:00:53.156Z,2.90
2023-03-06T18:03:19.994Z,2.80
2023-03-06T18:05:46.752Z,2.80
2023-03-06T18:08:13.613Z,2.70
2023-03-06T18:10:41.339Z,2.70
2023-03-06T18:13:08.554Z,2.70
2023-03-06T18:15:39.479Z,2.60
2023-03-06T18:18:06.775Z,2.60
2023-03-06T18:20:33.926Z,2.60
2023-03-06T18:23:03.843Z,2.60
2023-03-06T18:25:32.345Z,2.60
2023-03-06T18:27:59.239Z,2.50
2023-03-06T18:30:26.024Z,2.50
2023-03-06T18:32:53.426Z,2.50
2023-03-06T18:35:20.729Z,2.50
2023-03-06T18:37:47.484Z,2.40
2023-03-06T18:40:14.517Z,2.40
2023-03-06T18:42:43.188Z,2.40
2023-03-06T18:45:11.437Z,2.40
2023-03-06T18:47:39.468Z,2.40
2023-03-06T18:50:06.760Z,2.30
2023-03-06T18:52:34.856Z,2.30
2023-03-06T18:55:01.746Z,2.30
2023-03-06T18:57:30.336Z,2.30
2023-03-06T18:59:57.290Z,2.30
2023-03-06T19:02:26.986Z,2.20
2023-03-06T19:04:54.526Z,2.20
2023-03-06T19:07:21.254Z,2.20
2023-03-06T19:09:48.991Z,2.20
2023-03-06T19:12:17.458Z,2.10
2023-03-06T19:14:44.496Z,2.10
2023-03-06T19:17:11.330Z,2.10
2023-03-06T19:19:38.351Z,2.10
2023-03-06T19:22:05.101Z,2.00
2023-03-06T19:24:31.938Z,2.00
2023-03-06T19:26:58.663Z,2.00
2023-03-06T19:29:25.742Z,1.90
2023-03-06T19:31:52.563Z,1.90
2023-03-06T19:34:19.354Z,1.90
2023-03-06T19:36:46.197Z,1.90
2023-03-06T19:39:13.050Z,1.80
2023-03-06T19:41:40.058Z,1.80
2023-03-06T19:44:06.854Z,1.80
2023-03-06T19:46:34.535Z,1.80
2023-03-06T19:49:03.183Z,1.80
2023-03-06T19:51:29.932Z,1.80
2023-03-06T19:53:57.567Z,1.80
2023-03-06T19:56:26.756Z,1.80
2023-03-06T19:58:53.947Z,1.80
2023-03-06T20:01:22.866Z,1.80
2023-03-06T20:03:50.676Z,1.80
2023-03-06T20:06:18.966Z,1.70
2023-03-06T20:08:47.162Z,1.70
2023-03-06T20:11:26.020Z,1.70
2023-03-06T20:13:53.628Z,1.70
2023-03-06T20:16:20.634Z,1.60
2023-03-06T20:18:47.617Z,1.60
2023-03-06T20:21:15.221Z,1.60
2023-03-06T20:23:42.534Z,1.60
2023-03-06T20:26:12.083Z,1.60
2023-03-06T20:28:39.961Z,1.60
2023-03-06T20:31:13.361Z,1.60
2023-03-06T20:33:40.164Z,1.70
2023-03-06T20:36:17.389Z,1.70
2023-03-06T20:38:44.745Z,1.80
2023-03-06T20:41:16.436Z,1.80
2023-03-06T20:43:43.539Z,1.80
2023-03-06T20:46:11.200Z,1.90
2023-03-06T20:48:38.859Z,1.90
2023-03-06T20:51:07.993Z,1.90
2023-03-06T20:53:37.557Z,1.90
2023-03-06T20:56:05.002Z,1.90
2023-03-06T20:58:32.542Z,2.00
2023-03-06T21:01:01.389Z,2.00
2023-03-06T21:03:29.648Z,2.00
2023-03-06T21:05:56.508Z,2.00
2023-03-06T21:08:23.551Z,2.10
2023-03-06T21:10:50.844Z,2.10
2023-03-06T21:13:17.598Z,2.10
2023-03-06T21:15:45.617Z,2.10
2023-03-06T21:18:13.070Z,2.10
2023-03-06T21:20:40.578Z,2.10
2023-03-06T21:23:07.433Z,2.10
2023-03-06T21:25:34.584Z,2.10
2023-03-06T21:28:01.357Z,2.10
2023-03-06T21:30:28.618Z,2.20
2023-03-06T21:32:55.676Z,2.10
2023-03-06T21:35:22.505Z,2.20
2023-03-06T21:37:49.217Z,2.20
2023-03-06T21:40:16.015Z,2.20
2023-03-06T21:42:42.768Z,2.20
2023-03-06T21:45:10.081Z,2.20
2023-03-06T21:47:38.364Z,2.20
2023-03-06T21:50:06.262Z,2.20
2023-03-06T21:52:33.001Z,2.20
2023-03-06T21:54:59.781Z,2.20
2023-03-06T21:57:26.564Z,2.20
2023-03-06T21:59:53.323Z,2.20
2023-03-06T22:02:21.159Z,2.20
2023-03-06T22:04:52.614Z,2.20
2023-03-06T22:07:20.204Z,2.20
2023-03-06T22:09:47.344Z,2.20
2023-03-06T22:12:14.442Z,2.20
2023-03-06T22:14:43.563Z,2.30
2023-03-06T22:17:10.476Z,2.30
2023-03-06T22:19:37.240Z,2.30
2023-03-06T22:22:04.302Z,2.30
2023-03-06T22:24:33.838Z,2.30
2023-03-06T22:27:00.634Z,2.30
2023-03-06T22:29:27.391Z,2.30
2023-03-06T22:31:54.158Z,2.40
2023-03-06T22:34:20.977Z,2.40
2023-03-06T22:36:48.174Z,2.40
2023-03-06T22:39:15.000Z,2.40
2023-03-06T22:41:41.725Z,2.40
2023-03-06T22:44:14.283Z,2.40
2023-03-06T22:46:41.612Z,2.40
2023-03-06T22:49:10.784Z,2.40
2023-03-06T22:51:37.976Z,2.40
2023-03-06T22:54:05.801Z,2.40
2023-03-06T22:56:32.954Z,2.50
2023-03-06T22:59:00.039Z,2.50
2023-03-06T23:01:29.309Z,2.50
2023-03-06T23:03:58.475Z,2.50
2023-03-06T23:06:36.754Z,2.50
2023-03-06T23:09:16.573Z,2.50
2023-03-06T23:11:43.401Z,2.50
2023-03-06T23:14:13.962Z,2.50
2023-03-06T23:16:40.768Z,2.50
2023-03-06T23:19:07.580Z,2.50
2023-03-06T23:24:04.358Z,2.50
2023-03-06T23:26:31.856Z,2.50
2023-03-06T23:28:58.675Z,2.40
2023-03-06T23:31:30.277Z,2.40
2023-03-06T23:33:58.443Z,2.40
2023-03-06T23:36:25.337Z,2.30
2023-03-06T23:38:52.160Z,2.20
2023-03-06T23:41:20.290Z,2.10
2023-03-06T23:43:47.885Z,2.00
2023-03-06T23:46:15.172Z,1.90
2023-03-06T23:48:42.527Z,1.90
2023-03-06T23:51:15.501Z,1.80
2023-03-06T23:53:43.225Z,1.70
2023-03-06T23:56:10.576Z,1.70
2023-03-06T23:58:37.641Z,1.60
